createdAt,value
2019-05-15T00:00:02.037Z,60.61
2019-05-15T00:01:02.023Z,61.33
2019-05-15T00:02:02.044Z,61.21
2019-05-15T00:03:01.997Z,61.24
2019-05-15T00:04:01.996Z,61.65
2019-05-15T00:05:01.980Z,61.54
2019-05-15T00:06:01.976Z,61.54
2019-05-15T00:07:01.988Z,61.65
2019-05-15T00:08:01.956Z,61.85
2019-05-15T00:09:01.947Z,61.75
2019-05-15T00:10:01.931Z,61.24
2019-05-15T00:11:01.915Z,61.65
2019-05-15T00:12:01.934Z,61.75
2019-05-15T00:13:01.900Z,61.85
2019-05-15T00:14:01.887Z,61.68
2019-05-15T00:15:01.876Z,62.29
2019-05-15T00:16:01.862Z,62.19
2019-05-15T00:17:01.888Z,62.19
2019-05-15T00:18:01.840Z,61.80
2019-05-15T00:19:01.827Z,61.78
2019-05-15T00:20:01.820Z,61.88
2019-05-15T00:21:01.809Z,61.88
2019-05-15T00:22:01.829Z,62.71
2019-05-15T00:23:01.784Z,63.25
2019-05-15T00:24:01.799Z,62.94
2019-05-15T00:25:01.762Z,62.40
2019-05-15T00:26:01.751Z,61.88
2019-05-15T00:27:01.766Z,62.81
2019-05-15T00:28:01.730Z,62.94
2019-05-15T00:29:11.568Z,62.84
2019-05-15T00:30:02.710Z,63.15
2019-05-15T00:31:01.699Z,63.15
2019-05-15T00:32:01.711Z,63.87
2019-05-15T00:33:01.685Z,63.87
2019-05-15T00:34:01.672Z,63.56
2019-05-15T00:35:01.658Z,64.18
2019-05-15T00:36:01.648Z,63.56
2019-05-15T00:37:01.665Z,63.87
2019-05-15T00:38:01.628Z,63.79
2019-05-15T00:39:01.617Z,63.67
2019-05-15T00:40:01.604Z,63.69
2019-05-15T00:41:01.598Z,64.62
2019-05-15T00:42:01.609Z,64.52
2019-05-15T00:43:01.580Z,64.52
2019-05-15T00:44:01.562Z,63.79
2019-05-15T00:45:01.555Z,64.31
2019-05-15T00:46:01.553Z,64.42
2019-05-15T00:47:01.526Z,63.69
2019-05-15T00:48:01.546Z,64.62
2019-05-15T00:49:01.509Z,63.18
2019-05-15T00:50:01.495Z,63.79
2019-05-15T00:51:01.495Z,63.59
2019-05-15T00:52:01.483Z,63.39
2019-05-15T00:53:01.490Z,63.69
2019-05-15T00:54:01.455Z,63.59
2019-05-15T00:55:01.450Z,63.59
2019-05-15T00:56:01.433Z,63.69
2019-05-15T00:57:01.448Z,63.79
2019-05-15T00:58:01.436Z,63.69
2019-05-15T00:59:01.398Z,63.39
2019-05-15T01:00:01.397Z,64.34
2019-05-15T01:01:01.376Z,63.82
2019-05-15T01:02:01.377Z,63.82
2019-05-15T01:03:01.382Z,64.00
2019-05-15T01:04:01.345Z,64.24
2019-05-15T01:05:01.337Z,64.03
2019-05-15T01:06:01.326Z,64.14
2019-05-15T01:07:01.319Z,63.93
2019-05-15T01:08:01.331Z,64.65
2019-05-15T01:09:01.292Z,64.45
2019-05-15T01:10:01.278Z,64.65
2019-05-15T01:11:01.270Z,64.86
2019-05-15T01:12:01.259Z,65.41
2019-05-15T01:13:01.279Z,65.41
2019-05-15T01:14:01.245Z,65.92
2019-05-15T01:15:01.244Z,65.61
2019-05-15T01:16:01.222Z,65.72
2019-05-15T01:17:01.207Z,65.09
2019-05-15T01:18:01.220Z,65.20
2019-05-15T01:19:01.184Z,65.30
2019-05-15T01:20:01.170Z,65.41
2019-05-15T01:21:01.171Z,64.65
2019-05-15T01:22:01.150Z,64.65
2019-05-15T01:23:01.169Z,63.93
2019-05-15T01:24:01.134Z,64.55
2019-05-15T01:25:01.125Z,63.82
2019-05-15T01:26:01.110Z,63.93
2019-05-15T01:27:01.101Z,63.75
2019-05-15T01:28:01.112Z,64.89
2019-05-15T01:29:01.076Z,64.89
2019-05-15T01:30:01.068Z,64.78
2019-05-15T01:31:01.063Z,65.85
2019-05-15T01:32:01.047Z,65.75
2019-05-15T01:33:01.070Z,65.61
2019-05-15T01:34:01.027Z,65.20
2019-05-15T01:35:01.020Z,65.20
2019-05-15T01:36:01.006Z,65.41
2019-05-15T01:37:00.999Z,65.75
2019-05-15T01:38:01.022Z,65.72
2019-05-15T01:39:00.971Z,65.33
2019-05-15T01:40:00.966Z,65.95
2019-05-15T01:41:00.956Z,65.44
2019-05-15T01:42:00.943Z,65.12
2019-05-15T01:43:00.955Z,65.64
2019-05-15T01:44:00.917Z,65.12
2019-05-15T01:45:00.913Z,65.33
2019-05-15T01:46:00.901Z,65.64
2019-05-15T01:47:00.888Z,66.47
2019-05-15T01:48:00.905Z,66.09
2019-05-15T01:49:00.867Z,66.81
2019-05-15T01:50:00.854Z,66.39
2019-05-15T01:51:00.837Z,66.81
2019-05-15T01:52:00.833Z,66.81
2019-05-15T01:53:00.850Z,67.02
2019-05-15T01:54:00.824Z,66.94
2019-05-15T01:55:00.809Z,66.53
2019-05-15T01:56:00.792Z,66.63
2019-05-15T01:57:00.791Z,66.42
2019-05-15T01:58:00.800Z,66.63
2019-05-15T01:59:00.766Z,66.63
2019-05-15T02:00:01.039Z,66.42
2019-05-15T02:01:00.739Z,67.05
2019-05-15T02:02:00.728Z,66.42
2019-05-15T02:03:00.743Z,66.22
2019-05-15T02:04:00.709Z,66.53
2019-05-15T02:05:00.705Z,66.74
2019-05-15T02:06:00.692Z,66.63
2019-05-15T02:07:00.678Z,66.63
2019-05-15T02:08:00.701Z,66.63
2019-05-15T02:09:00.660Z,66.63
2019-05-15T02:10:00.647Z,66.66
2019-05-15T02:11:00.638Z,66.66
2019-05-15T02:12:00.627Z,67.18
2019-05-15T02:13:00.648Z,66.77
2019-05-15T02:14:00.602Z,66.87
2019-05-15T02:15:00.594Z,67.39
2019-05-15T02:16:00.583Z,67.60
2019-05-15T02:17:00.570Z,67.21
2019-05-15T02:18:00.584Z,67.70
2019-05-15T02:19:00.551Z,67.32
2019-05-15T02:20:00.544Z,67.63
2019-05-15T02:21:00.536Z,67.18
2019-05-15T02:22:00.518Z,67.49
2019-05-15T02:23:00.543Z,67.08
2019-05-15T02:24:00.501Z,67.08
2019-05-15T02:25:00.508Z,66.74
2019-05-15T02:26:00.482Z,66.56
2019-05-15T02:27:00.468Z,66.35
2019-05-15T02:28:00.491Z,66.32
2019-05-15T02:29:00.445Z,66.12
2019-05-15T02:30:16.303Z,66.42
2019-05-15T02:31:01.424Z,66.81
2019-05-15T02:32:00.415Z,66.91
2019-05-15T02:33:00.431Z,65.91
2019-05-15T02:34:00.402Z,66.22
2019-05-15T02:35:00.389Z,66.42
2019-05-15T02:36:00.408Z,66.63
2019-05-15T02:37:00.584Z,66.63
2019-05-15T02:38:00.377Z,66.32
2019-05-15T02:39:00.343Z,66.02
2019-05-15T02:40:00.338Z,66.12
2019-05-15T02:41:00.320Z,66.02
2019-05-15T02:42:00.315Z,66.15
2019-05-15T02:43:00.325Z,66.25
2019-05-15T02:44:00.301Z,65.94
2019-05-15T02:45:00.276Z,65.22
2019-05-15T02:46:00.696Z,66.12
2019-05-15T02:47:00.257Z,66.25
2019-05-15T02:48:00.273Z,66.15
2019-05-15T02:49:00.245Z,66.46
2019-05-15T02:50:00.243Z,65.91
2019-05-15T02:51:00.218Z,65.42
2019-05-15T02:52:00.518Z,65.63
2019-05-15T02:53:00.730Z,65.32
2019-05-15T02:54:00.181Z,65.84
2019-05-15T02:55:00.179Z,65.94
2019-05-15T02:56:00.399Z,66.05
2019-05-15T02:57:00.155Z,66.15
2019-05-15T02:58:00.164Z,65.84
2019-05-15T02:59:00.286Z,65.22
2019-05-15T03:00:00.117Z,65.73
2019-05-15T03:01:00.110Z,66.66
2019-05-15T03:02:00.105Z,66.35
2019-05-15T03:03:00.456Z,66.66
2019-05-15T03:04:00.078Z,66.69
2019-05-15T03:05:00.069Z,66.77
2019-05-15T03:06:00.506Z,66.90
2019-05-15T03:07:00.513Z,67.63
2019-05-15T03:08:00.037Z,67.63
2019-05-15T03:09:00.047Z,67.52
2019-05-15T03:10:00.323Z,67.97
2019-05-15T03:11:00.005Z,67.97
2019-05-15T03:11:59.999Z,68.38
2019-05-15T03:13:00.263Z,68.38
2019-05-15T03:14:00.009Z,68.59
2019-05-15T03:15:00.153Z,68.70
2019-05-15T03:16:00.163Z,68.49
2019-05-15T03:16:59.988Z,69.35
2019-05-15T03:18:00.541Z,68.93
2019-05-15T03:19:00.064Z,69.14
2019-05-15T03:19:59.908Z,69.14
2019-05-15T03:21:00.493Z,69.04
2019-05-15T03:22:00.092Z,69.45
2019-05-15T03:22:59.928Z,69.24
2019-05-15T03:23:59.892Z,68.83
2019-05-15T03:24:59.861Z,69.24
2019-05-15T03:26:04.006Z,69.21
2019-05-15T03:26:59.838Z,69.04
2019-05-15T03:27:59.824Z,69.21
2019-05-15T03:28:59.846Z,68.49
2019-05-15T03:29:59.800Z,68.07
2019-05-15T03:31:18.199Z,68.07
2019-05-15T03:32:22.174Z,68.41
2019-05-15T03:33:08.780Z,68.80
2019-05-15T03:34:02.888Z,68.49
2019-05-15T03:35:04.826Z,68.38
2019-05-15T03:36:02.470Z,68.80
2019-05-15T03:37:03.617Z,69.14
2019-05-15T03:38:00.033Z,69.32
2019-05-15T03:38:59.742Z,70.18
2019-05-15T03:39:59.806Z,69.97
2019-05-15T03:40:59.861Z,69.97
2019-05-15T03:41:59.674Z,70.18
2019-05-15T03:42:59.682Z,69.87
2019-05-15T03:43:59.839Z,70.18
2019-05-15T03:44:59.853Z,69.73
2019-05-15T03:46:01.626Z,69.76
2019-05-15T03:46:59.866Z,70.18
2019-05-15T03:47:59.746Z,69.97
2019-05-15T03:49:00.530Z,70.28
2019-05-15T03:50:00.087Z,69.97
2019-05-15T03:50:59.901Z,69.87
2019-05-15T03:51:59.575Z,69.87
2019-05-15T03:52:59.565Z,69.76
2019-05-15T03:54:00.337Z,70.59
2019-05-15T03:54:59.548Z,70.49
2019-05-15T03:55:59.535Z,70.49
2019-05-15T03:56:59.523Z,70.39
2019-05-15T03:57:59.513Z,70.39
2019-05-15T03:58:59.875Z,70.18
2019-05-15T03:59:59.808Z,70.18
2019-05-15T04:01:00.157Z,70.28
2019-05-15T04:02:00.053Z,70.07
2019-05-15T04:02:59.466Z,70.28
2019-05-15T04:03:59.980Z,70.21
2019-05-15T04:05:01.630Z,70.39
2019-05-15T04:06:00.534Z,70.28
2019-05-15T04:06:59.902Z,70.49
2019-05-15T04:07:59.989Z,70.18
2019-05-15T04:08:59.421Z,69.87
2019-05-15T04:09:59.384Z,70.18
2019-05-15T04:10:59.812Z,69.76
2019-05-15T04:12:00.104Z,69.35
2019-05-15T04:13:00.160Z,69.11
2019-05-15T04:13:59.638Z,68.90
2019-05-15T04:14:59.772Z,68.90
2019-05-15T04:15:59.613Z,67.83
2019-05-15T04:16:59.740Z,67.45
2019-05-15T04:18:00.333Z,67.52
2019-05-15T04:18:59.558Z,67.00
2019-05-15T04:19:59.285Z,66.80
2019-05-15T04:21:00.128Z,66.56
2019-05-15T04:22:00.014Z,66.87
2019-05-15T04:23:00.395Z,66.46
2019-05-15T04:23:59.259Z,66.15
2019-05-15T04:24:59.489Z,65.42
2019-05-15T04:25:59.234Z,65.39
2019-05-15T04:26:59.856Z,65.81
2019-05-15T04:27:59.192Z,65.29
2019-05-15T04:29:00.179Z,64.95
2019-05-15T04:29:59.343Z,63.81
2019-05-15T04:30:59.786Z,64.25
2019-05-15T04:32:05.385Z,64.64
2019-05-15T04:33:00.150Z,63.32
2019-05-15T04:33:59.367Z,63.92
2019-05-15T04:34:59.484Z,63.50
2019-05-15T04:35:59.182Z,63.92
2019-05-15T04:36:59.104Z,63.81
2019-05-15T04:37:59.872Z,64.12
2019-05-15T04:38:59.104Z,63.29
2019-05-15T04:39:59.867Z,62.95
2019-05-15T04:40:59.323Z,62.05
2019-05-15T04:41:59.168Z,61.71
2019-05-15T04:42:59.438Z,61.82
2019-05-15T04:43:59.739Z,61.92
2019-05-15T04:44:59.662Z,61.92
2019-05-15T04:46:02.859Z,61.30
2019-05-15T04:46:59.625Z,61.69
2019-05-15T04:47:58.981Z,60.78
2019-05-15T04:48:59.693Z,59.69
2019-05-15T04:49:59.141Z,58.58
2019-05-15T04:50:59.036Z,55.90
2019-05-15T04:52:03.340Z,53.02
2019-05-15T04:52:59.412Z,50.15
2019-05-15T04:53:58.918Z,48.14
2019-05-15T04:54:59.759Z,46.94
2019-05-15T04:55:59.837Z,45.80
2019-05-15T04:56:59.550Z,44.98
2019-05-15T04:57:59.323Z,45.04
2019-05-15T04:59:00.108Z,44.78
2019-05-15T04:59:58.881Z,45.10
2019-05-15T05:00:59.885Z,44.85
2019-05-15T05:02:16.332Z,45.10
2019-05-15T05:02:59.825Z,44.70
2019-05-15T05:03:59.022Z,45.00
2019-05-15T05:04:58.963Z,45.10
2019-05-15T05:05:59.328Z,44.85
2019-05-15T05:06:58.815Z,43.71
2019-05-15T05:07:59.688Z,44.57
2019-05-15T05:08:59.684Z,43.51
2019-05-15T05:09:59.511Z,43.41
2019-05-15T05:10:59.298Z,43.77
2019-05-15T05:11:58.733Z,43.04
2019-05-15T05:12:59.179Z,41.61
2019-05-15T05:13:59.219Z,41.30
2019-05-15T05:14:58.857Z,41.71
2019-05-15T05:15:58.924Z,41.39
2019-05-15T05:16:59.297Z,41.53
2019-05-15T05:17:58.730Z,41.82
2019-05-15T05:18:59.406Z,41.57
2019-05-15T05:19:58.672Z,41.06
2019-05-15T05:20:58.630Z,40.67
2019-05-15T05:21:58.667Z,40.57
2019-05-15T05:22:58.609Z,41.06
2019-05-15T05:23:58.690Z,41.49
2019-05-15T05:24:58.634Z,41.47
2019-05-15T05:25:58.573Z,39.72
2019-05-15T05:26:58.566Z,40.76
2019-05-15T05:27:58.555Z,40.53
2019-05-15T05:29:01.384Z,39.69
2019-05-15T05:29:58.715Z,39.26
2019-05-15T05:30:58.943Z,40.27
2019-05-15T05:31:58.667Z,37.93
2019-05-15T05:32:58.506Z,40.21
2019-05-15T05:33:58.491Z,39.82
2019-05-15T05:34:58.941Z,40.12
2019-05-15T05:35:58.604Z,40.64
2019-05-15T05:36:58.921Z,41.47
2019-05-15T05:37:58.453Z,40.12
2019-05-15T05:38:58.503Z,40.92
2019-05-15T05:39:58.430Z,41.45
2019-05-15T05:40:58.774Z,41.53
2019-05-15T05:41:58.823Z,39.44
2019-05-15T05:42:59.621Z,39.02
2019-05-15T05:43:58.783Z,39.48
2019-05-15T05:44:58.377Z,41.57
2019-05-15T05:45:58.398Z,40.52
2019-05-15T05:46:58.356Z,40.12
2019-05-15T05:47:58.346Z,40.98
2019-05-15T05:48:58.422Z,41.61
2019-05-15T05:49:58.325Z,40.52
2019-05-15T05:50:58.504Z,38.40
2019-05-15T05:51:58.776Z,39.13
2019-05-15T05:52:58.290Z,40.66
2019-05-15T05:53:58.980Z,40.33
2019-05-15T05:54:58.267Z,39.13
2019-05-15T05:55:58.581Z,39.74
2019-05-15T05:56:58.681Z,38.38
2019-05-15T05:57:58.458Z,40.69
2019-05-15T05:58:58.652Z,40.41
2019-05-15T05:59:58.372Z,41.63
2019-05-15T06:00:58.694Z,39.92
2019-05-15T06:01:58.995Z,38.38
2019-05-15T06:02:59.137Z,39.23
2019-05-15T06:03:58.376Z,39.82
2019-05-15T06:04:58.335Z,39.53
2019-05-15T06:05:59.038Z,37.60
2019-05-15T06:07:07.234Z,39.39
2019-05-15T06:07:59.127Z,39.35
2019-05-15T06:08:58.465Z,39.81
2019-05-15T06:09:58.223Z,39.87
2019-05-15T06:10:58.603Z,38.99
2019-05-15T06:11:58.992Z,36.31
2019-05-15T06:12:58.775Z,35.88
2019-05-15T06:13:58.526Z,37.24
2019-05-15T06:14:58.152Z,38.01
2019-05-15T06:15:59.109Z,37.24
2019-05-15T06:16:58.901Z,36.31
2019-05-15T06:17:58.538Z,36.43
2019-05-15T06:18:58.658Z,36.32
2019-05-15T06:19:58.634Z,36.07
2019-05-15T06:20:58.746Z,34.89
2019-05-15T06:22:00.916Z,35.33
2019-05-15T06:22:58.084Z,35.36
2019-05-15T06:24:04.100Z,35.48
2019-05-15T06:24:58.947Z,36.44
2019-05-15T06:25:59.245Z,36.21
2019-05-15T06:26:58.697Z,36.41
2019-05-15T06:27:58.373Z,35.61
2019-05-15T06:28:58.584Z,36.29
2019-05-15T06:29:58.100Z,36.40
2019-05-15T06:31:00.736Z,36.34
2019-05-15T06:31:58.760Z,34.95
2019-05-15T06:33:08.323Z,34.02
2019-05-15T06:33:58.856Z,34.12
2019-05-15T06:34:57.900Z,33.29
2019-05-15T06:35:59.274Z,34.85
2019-05-15T06:36:58.894Z,35.09
2019-05-15T06:37:59.077Z,35.39
2019-05-15T06:38:59.015Z,35.36
2019-05-15T06:39:58.830Z,34.97
2019-05-15T06:40:58.364Z,35.71
2019-05-15T06:41:58.846Z,35.54
2019-05-15T06:42:59.317Z,35.21
2019-05-15T06:43:58.900Z,36.68
2019-05-15T06:44:58.905Z,36.58
2019-05-15T06:45:58.467Z,36.38
2019-05-15T06:46:58.784Z,35.12
2019-05-15T06:47:58.328Z,34.81
2019-05-15T06:48:58.095Z,35.17
2019-05-15T06:49:58.019Z,34.04
2019-05-15T06:50:58.040Z,33.02
2019-05-15T06:51:58.159Z,32.98
2019-05-15T06:52:58.748Z,33.92
2019-05-15T06:53:58.355Z,34.63
2019-05-15T06:54:59.222Z,36.60
2019-05-15T06:55:58.487Z,35.22
2019-05-15T06:56:58.338Z,35.95
2019-05-15T06:57:58.405Z,35.09
2019-05-15T06:58:58.183Z,35.38
2019-05-15T06:59:58.011Z,33.97
2019-05-15T07:00:59.267Z,34.36
2019-05-15T07:01:59.362Z,34.00
2019-05-15T07:02:58.292Z,35.02
2019-05-15T07:03:59.020Z,35.85
2019-05-15T07:04:58.357Z,33.31
2019-05-15T07:05:59.703Z,32.26
2019-05-15T07:06:58.325Z,32.47
2019-05-15T07:07:58.475Z,33.62
2019-05-15T07:08:58.591Z,34.56
2019-05-15T07:09:58.188Z,35.22
2019-05-15T07:10:57.952Z,34.87
2019-05-15T07:11:59.081Z,34.24
2019-05-15T07:12:58.477Z,34.78
2019-05-15T07:13:58.045Z,34.97
2019-05-15T07:14:58.229Z,33.85
2019-05-15T07:15:58.540Z,33.95
2019-05-15T07:16:59.177Z,35.19
2019-05-15T07:17:58.021Z,33.82
2019-05-15T07:18:58.880Z,32.14
2019-05-15T07:19:59.225Z,33.31
2019-05-15T07:20:58.093Z,32.77
2019-05-15T07:21:58.128Z,32.45
2019-05-15T07:22:58.596Z,33.40
2019-05-15T07:23:58.405Z,33.70
2019-05-15T07:24:58.248Z,33.63
2019-05-15T07:25:58.767Z,34.05
2019-05-15T07:26:59.130Z,33.76
2019-05-15T07:27:58.072Z,35.00
2019-05-15T07:28:59.351Z,34.56
2019-05-15T07:29:58.359Z,34.77
2019-05-15T07:30:58.332Z,35.10
2019-05-15T07:31:58.565Z,35.60
2019-05-15T07:32:58.575Z,33.51
2019-05-15T07:33:59.676Z,33.72
2019-05-15T07:34:57.904Z,33.40
2019-05-15T07:35:59.079Z,33.80
2019-05-15T07:36:59.191Z,32.25
2019-05-15T07:37:58.668Z,32.34
2019-05-15T07:38:57.990Z,32.86
2019-05-15T07:39:59.125Z,35.07
2019-05-15T07:41:01.136Z,34.24
2019-05-15T07:41:58.157Z,33.62
2019-05-15T07:42:58.530Z,32.31
2019-05-15T07:43:58.574Z,30.67
2019-05-15T07:44:58.879Z,32.25
2019-05-15T07:45:59.071Z,32.34
2019-05-15T07:46:58.358Z,32.47
2019-05-15T07:47:58.518Z,33.54
2019-05-15T07:48:58.324Z,33.41
2019-05-15T07:49:59.082Z,31.09
2019-05-15T07:50:58.996Z,30.58
2019-05-15T07:51:59.224Z,32.12
2019-05-15T07:52:59.022Z,32.14
2019-05-15T07:53:58.317Z,31.01
2019-05-15T07:54:58.273Z,31.22
2019-05-15T07:56:01.047Z,32.74
2019-05-15T07:56:58.201Z,31.73
2019-05-15T07:57:59.136Z,30.43
2019-05-15T07:58:58.592Z,29.08
2019-05-15T07:59:58.820Z,30.05
2019-05-15T08:00:59.016Z,30.52
2019-05-15T08:01:58.126Z,30.99
2019-05-15T08:02:58.632Z,31.18
2019-05-15T08:04:09.425Z,29.53
2019-05-15T08:04:57.889Z,30.68
2019-05-15T08:06:02.625Z,31.26
2019-05-15T08:06:59.107Z,29.53
2019-05-15T08:07:58.108Z,29.59
2019-05-15T08:08:59.040Z,28.47
2019-05-15T08:09:59.214Z,29.89
2019-05-15T08:10:57.944Z,27.64
2019-05-15T08:11:59.265Z,27.78
2019-05-15T08:12:58.135Z,27.78
2019-05-15T08:13:58.226Z,28.06
2019-05-15T08:14:58.238Z,27.34
2019-05-15T08:15:57.976Z,27.25
2019-05-15T08:16:59.026Z,28.49
2019-05-15T08:18:05.549Z,28.81
2019-05-15T08:18:57.933Z,28.68
2019-05-15T08:19:58.228Z,27.87
2019-05-15T08:20:58.604Z,27.84
2019-05-15T08:21:58.193Z,27.82
2019-05-15T08:22:58.259Z,27.50
2019-05-15T08:23:58.890Z,27.28
2019-05-15T08:24:58.965Z,27.58
2019-05-15T08:25:57.863Z,28.96
2019-05-15T08:26:58.129Z,29.49
2019-05-15T08:27:58.637Z,30.12
2019-05-15T08:28:57.921Z,27.71
2019-05-15T08:29:58.131Z,30.13
2019-05-15T08:30:58.370Z,28.59
2019-05-15T08:31:58.749Z,28.61
2019-05-15T08:32:58.754Z,27.89
2019-05-15T08:34:12.030Z,29.73
2019-05-15T08:34:58.667Z,29.53
2019-05-15T08:35:58.726Z,28.88
2019-05-15T08:36:58.751Z,28.65
2019-05-15T08:37:58.105Z,27.25
2019-05-15T08:38:59.065Z,29.15
2019-05-15T08:39:59.415Z,30.18
2019-05-15T08:40:57.006Z,30.05
2019-05-15T08:41:58.418Z,29.93
2019-05-15T08:43:01.904Z,28.61
2019-05-15T08:43:57.948Z,29.44
2019-05-15T08:44:58.346Z,29.49
2019-05-15T08:45:58.670Z,27.75
2019-05-15T08:46:58.759Z,27.78
2019-05-15T08:47:58.614Z,28.83
2019-05-15T08:48:58.334Z,29.25
2019-05-15T08:49:57.963Z,30.04
2019-05-15T08:50:57.941Z,28.78
2019-05-15T08:51:58.388Z,28.45
2019-05-15T08:52:57.941Z,27.19
2019-05-15T08:53:57.954Z,26.14
2019-05-15T08:54:58.853Z,27.11
2019-05-15T08:55:58.616Z,28.32
2019-05-15T08:56:58.987Z,26.37
2019-05-15T08:58:05.727Z,25.68
2019-05-15T08:58:58.019Z,27.33
2019-05-15T08:59:58.321Z,26.82
2019-05-15T09:00:58.569Z,27.75
2019-05-15T09:01:58.198Z,28.42
2019-05-15T09:02:58.173Z,28.01
2019-05-15T09:03:58.176Z,28.01
2019-05-15T09:04:58.059Z,27.20
2019-05-15T09:05:58.779Z,27.96
2019-05-15T09:07:01.032Z,27.63
2019-05-15T09:07:58.076Z,27.11
2019-05-15T09:08:58.495Z,27.10
2019-05-15T09:09:58.040Z,26.82
2019-05-15T09:10:58.593Z,27.01
2019-05-15T09:11:58.368Z,27.23
2019-05-15T09:12:58.504Z,27.03
2019-05-15T09:13:59.298Z,27.24
2019-05-15T09:14:58.098Z,27.03
2019-05-15T09:15:58.701Z,27.34
2019-05-15T09:16:58.291Z,27.10
2019-05-15T09:18:11.295Z,27.34
2019-05-15T09:18:59.147Z,26.70
2019-05-15T09:19:58.662Z,27.56
2019-05-15T09:20:56.100Z,28.35
2019-05-15T09:21:58.289Z,27.43
2019-05-15T09:22:58.262Z,27.37
2019-05-15T09:23:58.711Z,27.37
2019-05-15T09:24:56.054Z,26.81
2019-05-15T09:25:57.851Z,27.34
2019-05-15T09:26:56.035Z,27.72
2019-05-15T09:27:57.928Z,28.00
2019-05-15T09:28:58.328Z,27.19
2019-05-15T09:29:56.004Z,26.79
2019-05-15T09:30:55.995Z,27.14
2019-05-15T09:31:55.987Z,27.73
2019-05-15T09:32:56.002Z,27.22
2019-05-15T09:33:58.391Z,26.70
2019-05-15T09:34:55.953Z,27.84
2019-05-15T09:35:58.158Z,27.76
2019-05-15T09:36:55.933Z,27.95
2019-05-15T09:37:58.178Z,27.93
2019-05-15T09:38:58.348Z,27.82
2019-05-15T09:39:58.244Z,27.43
2019-05-15T09:40:58.291Z,26.53
2019-05-15T09:41:57.784Z,28.47
2019-05-15T09:42:57.792Z,28.10
2019-05-15T09:43:57.918Z,27.87
2019-05-15T09:44:58.042Z,27.67
2019-05-15T09:45:58.098Z,29.13
2019-05-15T09:46:58.272Z,28.87
2019-05-15T09:47:55.857Z,27.96
2019-05-15T09:48:55.808Z,27.97
2019-05-15T09:49:55.800Z,29.28
2019-05-15T09:50:55.792Z,28.55
2019-05-15T09:51:58.418Z,29.41
2019-05-15T09:52:55.802Z,28.85
2019-05-15T09:53:55.760Z,26.57
2019-05-15T09:54:55.754Z,27.62
2019-05-15T09:55:55.739Z,27.87
2019-05-15T09:56:58.388Z,25.51
2019-05-15T09:57:55.723Z,26.12
2019-05-15T09:58:58.011Z,24.70
2019-05-15T09:59:58.545Z,25.84
2019-05-15T10:00:55.690Z,26.25
2019-05-15T10:01:55.679Z,27.06
2019-05-15T10:02:55.671Z,27.02
2019-05-15T10:03:55.690Z,26.10
2019-05-15T10:05:06.052Z,25.07
2019-05-15T10:05:56.646Z,25.28
2019-05-15T10:06:55.630Z,25.12
2019-05-15T10:07:55.629Z,25.76
2019-05-15T10:08:55.636Z,27.12
2019-05-15T10:09:55.596Z,27.31
2019-05-15T10:10:55.588Z,28.78
2019-05-15T10:11:55.581Z,28.56
2019-05-15T10:12:55.579Z,28.45
2019-05-15T10:13:55.594Z,27.48
2019-05-15T10:14:55.548Z,26.01
2019-05-15T10:15:55.537Z,24.40
2019-05-15T10:16:58.217Z,24.79
2019-05-15T10:17:55.519Z,24.90
2019-05-15T10:18:58.020Z,25.79
2019-05-15T10:19:58.131Z,23.96
2019-05-15T10:20:57.599Z,24.26
2019-05-15T10:21:55.492Z,24.05
2019-05-15T10:22:55.474Z,24.02
2019-05-15T10:23:58.792Z,26.79
2019-05-15T10:24:55.453Z,26.87
2019-05-15T10:25:55.437Z,27.05
2019-05-15T10:26:57.927Z,25.73
2019-05-15T10:27:57.843Z,26.15
2019-05-15T10:28:58.262Z,27.20
2019-05-15T10:29:55.394Z,26.07
2019-05-15T10:30:55.393Z,27.20
2019-05-15T10:31:55.375Z,26.92
2019-05-15T10:32:55.373Z,27.10
2019-05-15T10:33:55.383Z,27.06
2019-05-15T10:34:55.353Z,26.13
2019-05-15T10:35:55.341Z,27.08
2019-05-15T10:36:55.334Z,27.15
2019-05-15T10:37:55.323Z,26.06
2019-05-15T10:38:55.389Z,27.17
2019-05-15T10:39:55.299Z,26.02
2019-05-15T10:41:08.133Z,25.40
2019-05-15T10:41:56.282Z,27.16
2019-05-15T10:42:55.276Z,26.87
2019-05-15T10:43:56.684Z,25.54
2019-05-15T10:44:55.253Z,26.34
2019-05-15T10:45:55.251Z,25.74
2019-05-15T10:46:55.234Z,26.15
2019-05-15T10:47:55.230Z,27.37
2019-05-15T10:48:55.239Z,26.73
2019-05-15T10:49:55.204Z,27.17
2019-05-15T10:50:58.542Z,26.48
2019-05-15T10:51:56.183Z,27.17
2019-05-15T10:52:55.175Z,27.29
2019-05-15T10:53:55.195Z,27.92
2019-05-15T10:54:55.159Z,28.35
2019-05-15T10:55:55.159Z,27.75
2019-05-15T10:56:55.149Z,27.72
2019-05-15T10:57:55.159Z,27.69
2019-05-15T10:58:55.146Z,27.37
2019-05-15T10:59:55.121Z,26.67
2019-05-15T11:00:55.108Z,26.90
2019-05-15T11:01:55.086Z,27.70
2019-05-15T11:02:55.083Z,27.61
2019-05-15T11:03:55.095Z,27.91
2019-05-15T11:04:55.060Z,27.78
2019-05-15T11:05:55.101Z,26.47
2019-05-15T11:06:55.041Z,27.48
2019-05-15T11:07:55.031Z,26.45
2019-05-15T11:08:55.044Z,26.12
2019-05-15T11:09:55.025Z,26.81
2019-05-15T11:10:54.999Z,26.54
2019-05-15T11:11:54.994Z,27.36
2019-05-15T11:12:54.983Z,26.96
2019-05-15T11:13:55.002Z,27.01
2019-05-15T11:14:54.965Z,25.60
2019-05-15T11:15:54.955Z,26.14
2019-05-15T11:16:54.945Z,25.82
2019-05-15T11:17:54.938Z,26.97
2019-05-15T11:18:54.953Z,26.27
2019-05-15T11:19:54.919Z,28.61
2019-05-15T11:20:54.904Z,27.15
2019-05-15T11:21:54.891Z,27.06
2019-05-15T11:22:54.884Z,26.21
2019-05-15T11:23:54.904Z,25.78
2019-05-15T11:24:54.863Z,25.04
2019-05-15T11:25:54.863Z,25.49
2019-05-15T11:26:56.262Z,25.64
2019-05-15T11:27:54.838Z,26.01
2019-05-15T11:28:54.850Z,24.94
2019-05-15T11:29:54.819Z,25.13
2019-05-15T11:30:54.802Z,25.49
2019-05-15T11:31:54.795Z,24.20
2019-05-15T11:32:54.783Z,25.21
2019-05-15T11:33:54.803Z,25.84
2019-05-15T11:34:54.762Z,24.49
2019-05-15T11:36:02.062Z,24.16
2019-05-15T11:36:55.743Z,24.18
2019-05-15T11:37:56.892Z,24.24
2019-05-15T11:38:54.751Z,23.93
2019-05-15T11:39:54.713Z,24.64
2019-05-15T11:40:54.703Z,23.43
2019-05-15T11:41:54.691Z,23.64
2019-05-15T11:42:54.683Z,24.96
2019-05-15T11:43:54.776Z,25.32
2019-05-15T11:44:54.664Z,27.26
2019-05-15T11:45:54.655Z,26.37
2019-05-15T11:46:54.645Z,25.76
2019-05-15T11:47:54.633Z,26.45
2019-05-15T11:48:54.662Z,25.64
2019-05-15T11:49:54.616Z,26.21
2019-05-15T11:50:54.613Z,25.39
2019-05-15T11:51:54.595Z,24.55
2019-05-15T11:52:54.592Z,24.66
2019-05-15T11:53:54.606Z,25.18
2019-05-15T11:54:54.598Z,26.23
2019-05-15T11:55:54.558Z,27.50
2019-05-15T11:56:54.546Z,26.96
2019-05-15T11:57:55.759Z,27.11
2019-05-15T11:58:54.526Z,24.26
2019-05-15T11:59:55.485Z,24.85
2019-05-15T12:00:54.510Z,25.04
2019-05-15T12:01:54.499Z,23.69
2019-05-15T12:02:54.496Z,23.52
2019-05-15T12:03:54.482Z,24.63
2019-05-15T12:04:54.507Z,24.14
2019-05-15T12:05:54.460Z,23.74
2019-05-15T12:06:59.741Z,24.71
2019-05-15T12:07:57.774Z,24.74
2019-05-15T12:08:54.431Z,25.51
2019-05-15T12:09:54.449Z,24.93
2019-05-15T12:10:54.412Z,26.89
2019-05-15T12:11:54.402Z,26.90
2019-05-15T12:12:54.391Z,26.27
2019-05-15T12:13:54.379Z,26.82
2019-05-15T12:14:54.406Z,27.33
2019-05-15T12:15:54.359Z,26.65
2019-05-15T12:17:10.155Z,24.38
2019-05-15T12:17:55.338Z,25.79
2019-05-15T12:18:54.334Z,24.77
2019-05-15T12:19:55.897Z,23.94
2019-05-15T12:20:55.312Z,24.78
2019-05-15T12:21:54.304Z,26.62
2019-05-15T12:22:54.303Z,25.40
2019-05-15T12:23:54.282Z,24.88
2019-05-15T12:24:54.299Z,25.77
2019-05-15T12:25:54.261Z,24.22
2019-05-15T12:26:54.254Z,24.05
2019-05-15T12:27:54.242Z,23.83
2019-05-15T12:28:54.231Z,24.03
2019-05-15T12:29:54.251Z,24.69
2019-05-15T12:30:54.211Z,24.79
2019-05-15T12:31:54.206Z,26.42
2019-05-15T12:32:54.194Z,25.88
2019-05-15T12:33:54.184Z,24.87
2019-05-15T12:34:54.206Z,26.13
2019-05-15T12:35:54.165Z,25.78
2019-05-15T12:36:57.977Z,24.69
2019-05-15T12:37:54.146Z,25.83
2019-05-15T12:38:54.135Z,26.87
2019-05-15T12:59:54.954Z,27.22
2019-05-15T13:00:53.921Z,27.87
2019-05-15T13:01:53.903Z,27.59
2019-05-15T13:02:53.910Z,29.68
2019-05-15T13:03:53.883Z,29.47
2019-05-15T13:04:53.904Z,29.17
2019-05-15T13:05:53.873Z,29.76
2019-05-15T13:07:11.598Z,29.55
2019-05-15T13:07:54.843Z,28.71
2019-05-15T13:08:53.842Z,28.31
2019-05-15T13:09:53.859Z,26.82
2019-05-15T13:10:53.816Z,26.89
2019-05-15T13:11:53.807Z,27.84